Aviation Digital Data Service (ADDS)

Output produced by METARs form (1545 UTC 20 May 2018)
found at http://aviationweather.gov/adds/metars/
 
KFKL 201424Z 2014/2112 29006KT P6SM OVC007 
     FM201600 30007KT P6SM BKN025 
     FM201900 31007KT P6SM BKN045 
     FM210000 33005KT P6SM SCT120 
     FM210800 VRB03KT 3SM BR SCT025